createdAt,value
2023-11-07T00:01:43.164Z,5.37
2023-11-07T00:04:33.914Z,5.35
2023-11-07T00:07:24.664Z,5.34
2023-11-07T00:10:15.437Z,5.32
2023-11-07T00:13:06.125Z,5.32
2023-11-07T00:15:56.807Z,5.35
2023-11-07T00:18:48.410Z,5.35
2023-11-07T00:21:39.242Z,5.36
2023-11-07T00:24:30.286Z,5.37
2023-11-07T00:27:20.983Z,5.38
2023-11-07T00:30:12.480Z,5.38
2023-11-07T00:33:03.298Z,5.40
2023-11-07T00:35:54.186Z,5.43
2023-11-07T00:38:45.564Z,5.46
2023-11-07T00:41:36.417Z,5.48
2023-11-07T00:44:27.342Z,5.48
2023-11-07T00:47:18.145Z,5.47
2023-11-07T00:50:11.776Z,5.47
2023-11-07T00:53:02.631Z,5.45
2023-11-07T00:55:53.372Z,5.45
2023-11-07T00:58:44.312Z,5.44
2023-11-07T01:01:35.032Z,5.44
2023-11-07T01:04:25.953Z,5.43
2023-11-07T01:07:16.788Z,5.43
2023-11-07T01:10:08.687Z,5.43
2023-11-07T01:12:59.980Z,5.43
2023-11-07T01:15:50.696Z,5.44
2023-11-07T01:18:41.618Z,5.43
2023-11-07T01:21:32.417Z,5.44
2023-11-07T01:24:23.160Z,5.43
2023-11-07T01:27:13.971Z,5.42
2023-11-07T01:30:08.565Z,5.42
2023-11-07T01:32:59.893Z,5.40
2023-11-07T01:35:50.653Z,5.36
2023-11-07T01:38:41.432Z,5.36
2023-11-07T01:41:32.400Z,5.35
2023-11-07T01:44:29.805Z,5.35
2023-11-07T01:47:26.443Z,5.34
2023-11-07T01:50:17.332Z,5.34
2023-11-07T01:53:08.639Z,5.35
2023-11-07T01:56:00.197Z,5.37
2023-11-07T01:58:54.291Z,5.42
2023-11-07T02:01:48.714Z,5.46
2023-11-07T02:04:40.012Z,5.48
2023-11-07T02:07:31.509Z,5.50
2023-11-07T02:10:22.852Z,5.52
2023-11-07T02:13:13.542Z,5.54
2023-11-07T02:16:04.822Z,5.55
2023-11-07T02:18:57.295Z,5.56
2023-11-07T02:21:49.154Z,5.54
2023-11-07T02:24:40.377Z,5.53
2023-11-07T02:27:31.170Z,5.56
2023-11-07T02:30:23.353Z,5.60
2023-11-07T02:33:15.609Z,5.61
2023-11-07T02:36:07.097Z,5.65
2023-11-07T02:38:57.965Z,5.70
2023-11-07T02:41:49.024Z,5.70
2023-11-07T02:44:39.986Z,5.70
2023-11-07T02:47:31.126Z,5.70
2023-11-07T02:50:21.949Z,5.70
2023-11-07T02:53:12.854Z,5.69
2023-11-07T02:56:03.863Z,5.68
2023-11-07T02:58:55.650Z,5.66
2023-11-07T03:01:46.336Z,5.65
2023-11-07T03:04:37.052Z,5.65
2023-11-07T03:07:27.752Z,5.64
2023-11-07T03:10:18.470Z,5.63
2023-11-07T03:13:09.784Z,5.63
2023-11-07T03:16:00.565Z,5.62
2023-11-07T03:18:51.473Z,5.61
2023-11-07T03:21:42.212Z,5.60
2023-11-07T03:24:32.952Z,5.56
2023-11-07T03:27:23.640Z,5.52
2023-11-07T03:30:14.399Z,5.47
2023-11-07T03:33:05.129Z,5.44
2023-11-07T03:35:58.326Z,5.40
2023-11-07T03:38:49.525Z,5.38
2023-11-07T03:41:42.510Z,5.35
2023-11-07T03:44:35.064Z,5.33
2023-11-07T03:47:25.862Z,5.34
2023-11-07T03:50:16.710Z,5.32
2023-11-07T03:53:07.409Z,5.29
2023-11-07T03:55:59.562Z,5.27
2023-11-07T03:58:50.320Z,5.23
2023-11-07T04:01:41.081Z,5.21
2023-11-07T04:04:32.416Z,5.22
2023-11-07T04:07:23.263Z,5.20
2023-11-07T04:10:14.980Z,5.21
2023-11-07T04:13:06.610Z,5.20
2023-11-07T04:15:57.989Z,5.21
2023-11-07T04:18:49.191Z,5.20
2023-11-07T04:21:40.012Z,5.21
2023-11-07T04:24:31.974Z,5.19
2023-11-07T04:27:23.669Z,5.19
2023-11-07T04:30:14.929Z,5.20
2023-11-07T04:33:05.884Z,5.27
2023-11-07T04:35:56.846Z,5.34
2023-11-07T04:38:47.643Z,5.43
2023-11-07T04:41:38.490Z,5.49
2023-11-07T04:44:29.167Z,5.53
2023-11-07T04:47:20.291Z,5.55
2023-11-07T04:50:13.177Z,5.56
2023-11-07T04:53:05.737Z,5.57
2023-11-07T04:55:57.184Z,5.58
2023-11-07T04:58:57.117Z,5.59
2023-11-07T05:01:50.586Z,5.58
2023-11-07T05:04:41.480Z,5.61
2023-11-07T05:07:32.964Z,5.58
2023-11-07T05:10:23.809Z,5.56
2023-11-07T05:13:15.679Z,5.53
2023-11-07T05:16:07.065Z,5.50
2023-11-07T05:18:58.131Z,5.48
2023-11-07T05:21:48.963Z,5.46
2023-11-07T05:24:39.982Z,5.46
2023-11-07T05:27:30.669Z,5.44
2023-11-07T05:30:21.401Z,5.42
2023-11-07T05:33:13.625Z,5.41
2023-11-07T05:36:04.777Z,5.40
2023-11-07T05:38:57.263Z,5.40
2023-11-07T05:41:48.991Z,5.42
2023-11-07T05:44:40.447Z,5.46
2023-11-07T05:47:31.172Z,5.49
2023-11-07T05:50:26.641Z,5.53
2023-11-07T05:53:20.485Z,5.55
2023-11-07T05:56:11.179Z,5.56
2023-11-07T05:59:02.075Z,5.57
2023-11-07T06:01:52.963Z,5.61
2023-11-07T06:04:43.744Z,5.67
2023-11-07T06:07:34.861Z,5.77
2023-11-07T06:10:26.374Z,5.90
2023-11-07T06:13:17.389Z,6.03
2023-11-07T06:16:08.499Z,6.14
2023-11-07T06:18:59.323Z,6.25
2023-11-07T06:21:50.907Z,6.38
2023-11-07T06:24:42.997Z,6.53
2023-11-07T06:27:33.868Z,6.64
2023-11-07T06:30:24.589Z,6.71
2023-11-07T06:33:15.818Z,6.76
2023-11-07T06:36:07.187Z,6.83
2023-11-07T06:38:58.148Z,6.89
2023-11-07T06:41:48.921Z,6.94
2023-11-07T06:44:39.947Z,7.01
2023-11-07T06:47:30.690Z,7.06
2023-11-07T06:50:21.496Z,7.14
2023-11-07T06:53:12.313Z,7.19
2023-11-07T06:56:03.702Z,7.25
2023-11-07T06:58:54.888Z,7.36
2023-11-07T07:01:48.720Z,7.45
2023-11-07T07:04:39.431Z,7.55
2023-11-07T07:07:30.162Z,7.65
2023-11-07T07:10:21.166Z,7.75
2023-11-07T07:48:39.906Z,9.82
2023-11-07T07:51:30.743Z,10.09
2023-11-07T07:57:19.448Z,10.62
2023-11-07T08:00:13.619Z,10.87
2023-11-07T08:03:08.806Z,11.15
2023-11-07T08:06:00.195Z,11.39
2023-11-07T08:08:50.944Z,11.66
2023-11-07T08:11:42.916Z,11.82
2023-11-07T08:14:33.912Z,11.96
2023-11-07T08:17:25.059Z,12.13
2023-11-07T08:20:16.046Z,12.27
2023-11-07T08:23:07.023Z,12.39
2023-11-07T08:25:58.592Z,12.54
2023-11-07T08:28:49.355Z,12.72
2023-11-07T08:31:40.610Z,12.91
2023-11-07T08:34:33.898Z,13.09
2023-11-07T08:37:24.886Z,13.30
2023-11-07T08:40:20.956Z,13.48
2023-11-07T08:43:11.981Z,13.69
2023-11-07T08:46:02.718Z,13.89
2023-11-07T08:48:54.838Z,14.09
2023-11-07T08:51:51.388Z,14.28
2023-11-07T08:54:42.676Z,14.45
2023-11-07T08:57:38.133Z,14.60
2023-11-07T09:00:29.116Z,14.73
2023-11-07T09:03:20.156Z,14.89
2023-11-07T09:06:11.006Z,15.02
2023-11-07T09:09:01.878Z,15.18
2023-11-07T09:11:53.800Z,15.28
2023-11-07T09:14:45.684Z,15.36
2023-11-07T09:17:36.751Z,15.48
2023-11-07T09:20:27.514Z,15.57
2023-11-07T09:23:18.250Z,15.67
2023-11-07T09:26:09.818Z,15.73
2023-11-07T09:29:00.544Z,15.83
2023-11-07T09:31:53.561Z,15.92
2023-11-07T09:34:44.385Z,16.03
2023-11-07T09:37:41.473Z,16.13
2023-11-07T09:40:33.028Z,16.25
2023-11-07T09:43:28.234Z,16.38
2023-11-07T09:46:23.054Z,16.51
2023-11-07T09:49:14.617Z,16.66
2023-11-07T09:52:07.615Z,16.80
2023-11-07T09:55:00.305Z,16.86
2023-11-07T09:58:15.444Z,16.93
2023-11-07T10:01:09.120Z,17.01
2023-11-07T10:04:00.294Z,17.06
2023-11-07T10:06:51.112Z,17.10
2023-11-07T10:09:41.808Z,17.14
2023-11-07T10:12:40.069Z,17.11
2023-11-07T10:15:30.894Z,17.08
2023-11-07T10:18:21.721Z,17.02
2023-11-07T10:21:12.519Z,16.90
2023-11-07T10:24:03.647Z,16.88
2023-11-07T10:27:00.779Z,16.85
2023-11-07T10:29:59.380Z,16.88
2023-11-07T10:32:56.927Z,16.89
2023-11-07T10:35:56.233Z,16.89
2023-11-07T10:38:48.167Z,16.88
2023-11-07T10:41:39.000Z,16.88
2023-11-07T10:44:32.383Z,16.85
2023-11-07T10:47:24.199Z,16.82
2023-11-07T10:50:18.306Z,16.80
2023-11-07T10:53:09.056Z,16.77
2023-11-07T10:56:01.331Z,16.78
2023-11-07T10:59:00.322Z,16.79
2023-11-07T11:01:53.969Z,16.77
2023-11-07T11:04:49.627Z,16.76
2023-11-07T11:07:58.528Z,16.77
2023-11-07T11:10:50.193Z,16.71
2023-11-07T11:13:42.871Z,16.63
2023-11-07T11:16:34.427Z,16.53
2023-11-07T11:19:48.546Z,16.46
2023-11-07T11:22:50.170Z,16.45
2023-11-07T11:26:21.299Z,16.51
2023-11-07T11:29:29.838Z,16.70
2023-11-07T11:32:28.685Z,16.78
2023-11-07T11:35:20.355Z,16.77
2023-11-07T11:38:22.075Z,16.71
2023-11-07T11:41:12.811Z,16.55
2023-11-07T11:44:14.902Z,16.40
2023-11-07T11:47:05.881Z,16.32
2023-11-07T11:50:16.827Z,16.31
2023-11-07T11:53:10.283Z,16.33
2023-11-07T11:56:01.084Z,16.38
2023-11-07T11:59:12.215Z,16.42
2023-11-07T12:02:05.969Z,16.51
2023-11-07T12:05:19.062Z,16.56
2023-11-07T12:08:45.353Z,16.59
2023-11-07T12:11:45.787Z,16.67
2023-11-07T12:14:59.196Z,16.65
2023-11-07T12:17:52.322Z,16.64
2023-11-07T12:20:43.265Z,16.68
2023-11-07T12:23:34.060Z,16.68
2023-11-07T12:26:42.008Z,16.60
2023-11-07T12:29:39.973Z,16.52
2023-11-07T12:32:30.803Z,16.49
2023-11-07T12:35:24.259Z,16.50
2023-11-07T12:38:16.628Z,16.55
2023-11-07T12:41:08.519Z,16.62
2023-11-07T12:44:10.301Z,16.80
2023-11-07T12:47:01.766Z,17.12
2023-11-07T12:49:55.667Z,17.48
2023-11-07T12:52:59.680Z,17.79
2023-11-07T12:55:55.503Z,17.97
2023-11-07T12:58:46.864Z,18.00
2023-11-07T13:01:37.974Z,17.99
2023-11-07T13:04:28.920Z,18.08
2023-11-07T13:07:19.637Z,18.16
2023-11-07T13:10:17.263Z,18.17
2023-11-07T13:13:08.019Z,18.15
2023-11-07T13:15:58.690Z,18.19
2023-11-07T13:19:01.898Z,18.25
2023-11-07T13:21:52.836Z,18.33
2023-11-07T13:24:44.588Z,18.37
2023-11-07T13:27:35.631Z,18.23
2023-11-07T13:30:26.403Z,17.98
2023-11-07T13:33:17.343Z,17.77
2023-11-07T13:36:09.391Z,17.52
2023-11-07T13:39:00.157Z,17.44
2023-11-07T13:41:51.300Z,17.49
2023-11-07T13:44:42.040Z,17.57
2023-11-07T13:47:33.066Z,17.56
2023-11-07T13:50:24.836Z,17.38
2023-11-07T13:53:16.895Z,17.14
2023-11-07T13:56:09.926Z,16.92
2023-11-07T13:59:01.919Z,16.70
2023-11-07T14:01:52.785Z,16.49
2023-11-07T14:04:43.516Z,16.30
2023-11-07T14:07:34.395Z,16.15
2023-11-07T14:10:25.760Z,15.99
2023-11-07T14:13:16.466Z,15.84
2023-11-07T14:16:07.505Z,15.68
2023-11-07T14:18:58.431Z,15.54
2023-11-07T14:21:50.989Z,15.37
2023-11-07T14:24:42.011Z,15.21
2023-11-07T14:27:33.273Z,15.01
2023-11-07T14:33:19.618Z,14.62
2023-11-07T14:36:12.543Z,14.40
2023-11-07T14:39:04.834Z,14.21
2023-11-07T14:41:55.665Z,13.97
2023-11-07T14:44:46.679Z,13.72
2023-11-07T14:47:44.908Z,13.51
2023-11-07T14:50:40.427Z,13.28
2023-11-07T14:53:31.632Z,13.09
2023-11-07T14:56:24.101Z,12.92
2023-11-07T14:59:16.637Z,12.76
2023-11-07T15:02:14.546Z,12.58
2023-11-07T15:05:12.975Z,12.36
2023-11-07T15:08:03.899Z,12.15
2023-11-07T15:10:54.730Z,11.94
2023-11-07T15:13:45.513Z,11.76
2023-11-07T15:16:36.224Z,11.58
2023-11-07T15:19:26.949Z,11.42
2023-11-07T15:22:17.747Z,11.25
2023-11-07T15:25:17.849Z,11.08
2023-11-07T15:28:08.621Z,10.91
2023-11-07T15:30:59.363Z,10.74
2023-11-07T15:33:50.995Z,10.59
2023-11-07T15:36:41.762Z,10.43
2023-11-07T15:39:32.673Z,10.28
2023-11-07T15:42:24.444Z,10.13
2023-11-07T15:45:15.548Z,9.99
2023-11-07T15:48:09.628Z,9.88
2023-11-07T15:51:02.313Z,9.81
2023-11-07T15:53:53.067Z,9.70
2023-11-07T15:56:50.163Z,9.61
2023-11-07T15:59:40.984Z,9.54
2023-11-07T16:02:31.790Z,9.46
2023-11-07T16:05:27.651Z,9.39
2023-11-07T16:08:18.784Z,9.30
2023-11-07T16:11:09.503Z,9.23
2023-11-07T16:14:00.211Z,9.16
2023-11-07T16:16:50.985Z,9.07
2023-11-07T16:19:41.940Z,9.01
2023-11-07T16:22:32.706Z,8.92
2023-11-07T16:25:24.864Z,8.83
2023-11-07T16:28:15.800Z,8.72
2023-11-07T16:31:06.803Z,8.63
2023-11-07T16:34:01.354Z,8.60
2023-11-07T16:36:52.600Z,8.55
2023-11-07T16:39:43.355Z,8.49
2023-11-07T16:42:34.174Z,8.43
2023-11-07T16:45:25.192Z,8.37
2023-11-07T16:48:16.005Z,8.32
2023-11-07T16:51:09.344Z,8.29
2023-11-07T16:54:00.357Z,8.24
2023-11-07T16:56:51.034Z,8.21
2023-11-07T16:59:43.271Z,8.19
2023-11-07T17:02:34.050Z,8.14
2023-11-07T17:05:25.018Z,8.10
2023-11-07T17:08:16.102Z,8.05
2023-11-07T17:11:06.856Z,8.01
2023-11-07T17:14:00.525Z,7.99
2023-11-07T17:16:51.275Z,7.97
2023-11-07T17:19:45.531Z,7.98
2023-11-07T17:22:37.036Z,7.97
2023-11-07T17:25:27.880Z,7.96
2023-11-07T17:28:21.266Z,7.93
2023-11-07T17:31:13.815Z,7.87
2023-11-07T17:34:08.267Z,7.85
2023-11-07T17:36:59.539Z,7.79
2023-11-07T17:39:50.517Z,7.76
2023-11-07T17:42:41.276Z,7.73
2023-11-07T17:45:31.972Z,7.71
2023-11-07T17:48:23.867Z,7.70
2023-11-07T17:51:23.508Z,7.65
2023-11-07T17:54:14.598Z,7.63
2023-11-07T17:57:05.714Z,7.58
2023-11-07T17:59:57.105Z,7.52
2023-11-07T18:02:47.903Z,7.45
2023-11-07T18:05:38.966Z,7.41
2023-11-07T18:08:29.905Z,7.34
2023-11-07T18:11:22.750Z,7.31
2023-11-07T18:14:15.250Z,7.27
2023-11-07T18:17:06.159Z,7.22
2023-11-07T18:19:57.168Z,7.19
2023-11-07T18:22:49.810Z,7.16
2023-11-07T18:25:40.648Z,7.14
2023-11-07T18:28:32.557Z,7.13
2023-11-07T18:31:23.222Z,7.15
2023-11-07T18:34:20.991Z,7.15
2023-11-07T18:37:14.280Z,7.15
2023-11-07T18:40:07.000Z,7.14
2023-11-07T18:42:57.752Z,7.14
2023-11-07T18:45:48.597Z,7.14
2023-11-07T18:48:39.700Z,7.13
2023-11-07T18:51:32.660Z,7.15
2023-11-07T18:54:23.877Z,7.17
2023-11-07T18:57:14.946Z,7.16
2023-11-07T19:00:09.696Z,7.18
2023-11-07T19:03:00.577Z,7.18
2023-11-07T19:05:51.450Z,7.23
2023-11-07T19:08:42.115Z,7.26
2023-11-07T19:11:33.195Z,7.28
2023-11-07T19:14:23.879Z,7.31
2023-11-07T19:17:14.695Z,7.36
2023-11-07T19:20:07.120Z,7.40
2023-11-07T19:22:57.815Z,7.44
2023-11-07T19:25:48.634Z,7.48
2023-11-07T19:28:39.342Z,7.53
2023-11-07T19:31:31.864Z,7.65
2023-11-07T19:34:23.425Z,7.70
2023-11-07T19:37:14.724Z,7.72
2023-11-07T19:40:08.987Z,7.69
2023-11-07T19:43:00.157Z,7.65
2023-11-07T19:45:50.859Z,7.61
2023-11-07T19:48:42.507Z,7.57
2023-11-07T19:51:33.531Z,7.52
2023-11-07T19:54:24.455Z,7.50
2023-11-07T19:57:16.031Z,7.50
2023-11-07T20:00:10.031Z,7.48
2023-11-07T20:03:01.411Z,7.45
2023-11-07T20:05:52.281Z,7.43
2023-11-07T20:08:43.198Z,7.42
2023-11-07T20:11:36.105Z,7.44
2023-11-07T20:14:27.982Z,7.42
2023-11-07T20:17:19.187Z,7.44
2023-11-07T20:20:10.693Z,7.46
2023-11-07T20:23:01.435Z,7.48
2023-11-07T20:25:52.608Z,7.53
2023-11-07T20:28:43.335Z,7.56
2023-11-07T20:31:34.246Z,7.57
2023-11-07T20:34:25.136Z,7.58
2023-11-07T20:37:17.020Z,7.59
2023-11-07T20:40:11.119Z,7.59
2023-11-07T20:43:10.345Z,7.61
2023-11-07T20:46:03.083Z,7.65
2023-11-07T20:48:53.800Z,7.69
2023-11-07T20:51:44.690Z,7.72
2023-11-07T20:54:35.616Z,7.77
2023-11-07T20:57:26.409Z,7.80
2023-11-07T21:00:17.827Z,7.86
2023-11-07T21:03:08.691Z,7.87
2023-11-07T21:05:59.545Z,7.82
2023-11-07T21:08:52.350Z,7.78
2023-11-07T21:11:43.389Z,7.77
2023-11-07T21:14:35.221Z,7.78
2023-11-07T21:17:26.225Z,7.80
2023-11-07T21:20:17.016Z,7.84
2023-11-07T21:23:07.677Z,7.88
2023-11-07T21:25:58.436Z,7.90
2023-11-07T21:28:50.935Z,7.90
2023-11-07T21:31:42.248Z,7.91
2023-11-07T21:34:32.975Z,7.93
2023-11-07T21:37:23.776Z,7.95
2023-11-07T21:40:15.028Z,7.98
2023-11-07T21:43:05.754Z,8.00
2023-11-07T21:45:56.475Z,8.03
2023-11-07T21:48:47.467Z,8.06
2023-11-07T21:51:38.405Z,8.09
2023-11-07T21:54:29.204Z,8.16
2023-11-07T21:57:21.234Z,8.24
2023-11-07T22:00:16.058Z,8.31
2023-11-07T22:03:07.279Z,8.38
2023-11-07T22:05:59.884Z,8.42
2023-11-07T22:08:50.868Z,8.50
2023-11-07T22:11:41.585Z,8.54
2023-11-07T22:14:32.927Z,8.58
2023-11-07T22:17:23.768Z,8.64
2023-11-07T22:20:16.085Z,8.67
2023-11-07T22:23:06.804Z,8.69
2023-11-07T22:25:57.622Z,8.73
2023-11-07T22:28:48.377Z,8.77
2023-11-07T22:31:39.097Z,8.78
2023-11-07T22:34:29.852Z,8.78
2023-11-07T22:37:20.682Z,8.80
2023-11-07T22:40:11.831Z,8.86
2023-11-07T22:43:02.670Z,8.91
2023-11-07T22:45:53.332Z,8.97
2023-11-07T22:48:44.187Z,9.03
2023-11-07T22:51:34.990Z,9.06
2023-11-07T22:54:25.713Z,9.12
2023-11-07T22:57:16.483Z,9.17
2023-11-07T23:00:12.290Z,9.23
2023-11-07T23:03:03.549Z,9.29
2023-11-07T23:05:54.394Z,9.35
2023-11-07T23:08:45.085Z,9.37
2023-11-07T23:11:35.769Z,9.39
2023-11-07T23:14:28.384Z,9.44
2023-11-07T23:17:19.212Z,9.48
2023-11-07T23:20:11.002Z,9.50
2023-11-07T23:23:01.896Z,9.49
2023-11-07T23:25:52.844Z,9.53
2023-11-07T23:28:43.576Z,9.58
2023-11-07T23:31:34.978Z,9.64
2023-11-07T23:34:25.790Z,9.70
2023-11-07T23:37:16.557Z,9.74
2023-11-07T23:40:12.010Z,9.81
2023-11-07T23:43:03.492Z,9.84
2023-11-07T23:45:54.217Z,9.88
2023-11-07T23:48:44.927Z,9.90
2023-11-07T23:51:35.688Z,9.96
2023-11-07T23:54:26.507Z,9.98
2023-11-07T23:57:17.253Z,10.03
